Aérodrome :
LOGIN :

S'inscrire | Disclaimer

   EN    FR    IT 

 










Légende :    VFR   VFR Marginal   IFR   IFR Intensif   IFR Très Intensif
Visi : 
Plafond : 
>= 8 km
>= 3000ft
5 à 8 km
1000 à 3000 ft
1500m à 5 km
500 à 1000 ft
800 à 1500m
200 à 500 ft
< 800m
< 200 ft
Symboles :   Orages  Brouillard  Fortes neiges  Fortes précipitations  Vent > 20 kt
SIGMETs :   Divers  Orages  Givrage  Turbulence  Onde Orograph.  Cendres Volcan.






- Altitude de l'aérodrome : 203 ft
- Code IATA : XMJ


LFBM - Mont-De-Marsan

DERNIER METAR :
  • 261700Z AUTO 27007KT 9999 ///TCU 09/06 Q1020 TEMPO 28015G30KT 4000 -SHRA

METARs EXPIRÉS :
  • 261630Z AUTO 29009KT 9999 FEW012/// SCT030/// OVC064/// ///TCU 08/06 Q1020 TEMPO 28015G30KT 4000 -SHRA
  • 261600Z AUTO 29015KT 260V330 9999 -RA SCT030/// BKN037/// BKN092/// ///TCU 09/04 Q1020 TEMPO 28015G30KT 4000 -SHRA
  • 261530Z AUTO 28014KT 9999 FEW028/// OVC160/// ///TCU 11/06 Q1020 TEMPO 28015G30KT 4000 -SHRA
  • 261500Z AUTO 29015G27KT 9999 FEW027/// BKN043/// BKN058/// ///TCU 09/06 Q1020 TEMPO 4000 -SHRA
  • 261430Z AUTO 29012KT 9000 FEW034/// SCT048/// BKN078/// ///TCU 10/06 Q1020 TEMPO 28015G30KT 4000 -SHRA

TAF TAF LFBM
Valide du 26 à 15h jusqu'au 27 à 15h UTC


261400Z 2615/2715 29010KT 9999 FEW025 SCT045 BKN060
TEMPO 2615/2622 28015G30KT 4000 -SHRA BKN025TCU BKN040
BECMG 2702/2704 23005KT RA BKN030 BKN050
BECMG 2708/2709 27010G25KT
BECMG 2712/2715 BKN010 BKN015



MET'MAP, la Météo Aéronautique d'un coup d'oeil ! - Copyright ORBIFLY Décembre 2007 - Disclaimer

ORBIFLY MET'MAP TEAM :

Programmation & Développement : Alexandra Zaïnal
Sur une idée originale de : Baudouin d'Aumeries
Assistance à la programmation : Marc-Olivier Méhu
Soutien technique & logistique : Manuel Goepfert

Contact : metmap@orbifly.com




SOURCES & CREDITS :

   NOAA